sensor_id;sensor_type;location;lat;lon;timestamp;pressure;altitude;pressure_sealevel;temperature;humidity
9462;BME280;4769;42.660;23.262;2024-02-14T00:00:24;93735.88;;;6.07;100.00
9462;BME280;4769;42.660;23.262;2024-02-14T00:02:50;93739.75;;;5.87;100.00
9462;BME280;4769;42.660;23.262;2024-02-14T00:05:16;93740.56;;;5.87;100.00
9462;BME280;4769;42.660;23.262;2024-02-14T00:07:41;93752.50;;;5.83;100.00
9462;BME280;4769;42.660;23.262;2024-02-14T00:10:07;93743.44;;;5.79;100.00
9462;BME280;4769;42.660;23.262;2024-02-14T00:12:34;93753.53;;;5.82;100.00
9462;BME280;4769;42.660;23.262;2024-02-14T00:15:01;93744.66;;;5.83;100.00
9462;BME280;4769;42.660;23.262;2024-02-14T00:17:29;93749.88;;;5.83;100.00
9462;BME280;4769;42.660;23.262;2024-02-14T00:19:54;93760.34;;;5.83;100.00
9462;BME280;4769;42.660;23.262;2024-02-14T00:22:20;93759.38;;;5.96;100.00
9462;BME280;4769;42.660;23.262;2024-02-14T00:24:46;93754.50;;;5.81;100.00
9462;BME280;4769;42.660;23.262;2024-02-14T00:27:11;93757.78;;;5.95;100.00
9462;BME280;4769;42.660;23.262;2024-02-14T00:29:39;93754.66;;;5.86;100.00
9462;BME280;4769;42.660;23.262;2024-02-14T00:32:05;93760.97;;;5.97;100.00
9462;BME280;4769;42.660;23.262;2024-02-14T00:34:30;93757.50;;;5.85;100.00
9462;BME280;4769;42.660;23.262;2024-02-14T00:36:56;93761.22;;;6.07;100.00
9462;BME280;4769;42.660;23.262;2024-02-14T00:39:21;93772.28;;;6.09;100.00
9462;BME280;4769;42.660;23.262;2024-02-14T00:41:46;93767.50;;;5.88;100.00
9462;BME280;4769;42.660;23.262;2024-02-14T00:44:13;93776.09;;;5.95;100.00
9462;BME280;4769;42.660;23.262;2024-02-14T00:46:38;93769.91;;;5.89;100.00
9462;BME280;4769;42.660;23.262;2024-02-14T00:49:04;93761.25;;;5.89;100.00
9462;BME280;4769;42.660;23.262;2024-02-14T00:51:29;93764.25;;;5.92;100.00
9462;BME280;4769;42.660;23.262;2024-02-14T00:53:54;93763.16;;;5.82;100.00
9462;BME280;4769;42.660;23.262;2024-02-14T00:56:20;93768.22;;;5.77;100.00
9462;BME280;4769;42.660;23.262;2024-02-14T00:58:45;93771.22;;;5.80;100.00
9462;BME280;4769;42.660;23.262;2024-02-14T01:01:11;93762.13;;;6.01;100.00
9462;BME280;4769;42.660;23.262;2024-02-14T01:03:37;93763.16;;;5.82;100.00
9462;BME280;4769;42.660;23.262;2024-02-14T01:06:03;93763.66;;;5.90;100.00
9462;BME280;4769;42.660;23.262;2024-02-14T01:08:28;93769.84;;;5.96;100.00
9462;BME280;4769;42.660;23.262;2024-02-14T01:10:54;93771.66;;;5.95;100.00
9462;BME280;4769;42.660;23.262;2024-02-14T01:13:19;93765.72;;;5.88;100.00
9462;BME280;4769;42.660;23.262;2024-02-14T01:15:45;93776.03;;;6.01;100.00
9462;BME280;4769;42.660;23.262;2024-02-14T01:18:10;93776.38;;;5.87;100.00
9462;BME280;4769;42.660;23.262;2024-02-14T01:20:35;93767.66;;;5.93;100.00
9462;BME280;4769;42.660;23.262;2024-02-14T01:23:02;93771.16;;;5.87;100.00
9462;BME280;4769;42.660;23.262;2024-02-14T01:25:28;93773.63;;;5.82;100.00
9462;BME280;4769;42.660;23.262;2024-02-14T01:27:54;93767.97;;;5.85;100.00
9462;BME280;4769;42.660;23.262;2024-02-14T01:30:19;93770.28;;;5.93;100.00
9462;BME280;4769;42.660;23.262;2024-02-14T01:32:45;93767.66;;;5.93;100.00
9462;BME280;4769;42.660;23.262;2024-02-14T01:35:10;93762.50;;;5.86;100.00
9462;BME280;4769;42.660;23.262;2024-02-14T01:37:36;93766.00;;;5.80;100.00
9462;BME280;4769;42.660;23.262;2024-02-14T01:40:01;93764.34;;;5.86;100.00
9462;BME280;4769;42.660;23.262;2024-02-14T01:42:27;93765.56;;;5.83;100.00
9462;BME280;4769;42.660;23.262;2024-02-14T01:44:53;93779.69;;;5.82;100.00
9462;BME280;4769;42.660;23.262;2024-02-14T01:47:20;93760.69;;;5.87;100.00
9462;BME280;4769;42.660;23.262;2024-02-14T01:49:46;93770.50;;;5.73;100.00
9462;BME280;4769;42.660;23.262;2024-02-14T01:52:12;93771.41;;;5.79;100.00
9462;BME280;4769;42.660;23.262;2024-02-14T01:54:38;93773.63;;;5.82;100.00
9462;BME280;4769;42.660;23.262;2024-02-14T01:57:04;93769.47;;;5.74;100.00
9462;BME280;4769;42.660;23.262;2024-02-14T01:59:30;93768.66;;;5.74;100.00
9462;BME280;4769;42.660;23.262;2024-02-14T02:01:55;93767.06;;;5.73;100.00
9462;BME280;4769;42.660;23.262;2024-02-14T02:04:21;93772.19;;;5.86;100.00
9462;BME280;4769;42.660;23.262;2024-02-14T02:06:46;93770.84;;;5.77;100.00
9462;BME280;4769;42.660;23.262;2024-02-14T02:09:12;93785.25;;;5.86;100.00
9462;BME280;4769;42.660;23.262;2024-02-14T02:11:48;93774.66;;;5.81;100.00
9462;BME280;4769;42.660;23.262;2024-02-14T02:14:14;93776.84;;;5.77;100.00
9462;BME280;4769;42.660;23.262;2024-02-14T02:16:39;93774.03;;;5.79;100.00
9462;BME280;4769;42.660;23.262;2024-02-14T02:19:05;93789.03;;;5.72;100.00
9462;BME280;4769;42.660;23.262;2024-02-14T02:21:34;93777.31;;;5.74;100.00
9462;BME280;4769;42.660;23.262;2024-02-14T02:24:00;93776.22;;;5.64;100.00
9462;BME280;4769;42.660;23.262;2024-02-14T02:26:26;93776.22;;;5.64;100.00
9462;BME280;4769;42.660;23.262;2024-02-14T02:28:51;93766.34;;;5.66;100.00
9462;BME280;4769;42.660;23.262;2024-02-14T02:31:17;93776.22;;;5.64;100.00
9462;BME280;4769;42.660;23.262;2024-02-14T02:33:43;93780.16;;;5.73;100.00
9462;BME280;4769;42.660;23.262;2024-02-14T02:36:08;93781.09;;;5.78;100.00
9462;BME280;4769;42.660;23.262;2024-02-14T02:38:35;93788.28;;;5.65;100.00
9462;BME280;4769;42.660;23.262;2024-02-14T02:41:02;93794.09;;;5.67;100.00
9462;BME280;4769;42.660;23.262;2024-02-14T02:43:28;93799.28;;;5.73;100.00
9462;BME280;4769;42.660;23.262;2024-02-14T02:45:54;93799.13;;;5.86;100.00
9462;BME280;4769;42.660;23.262;2024-02-14T02:48:19;93794.75;;;5.62;100.00
9462;BME280;4769;42.660;23.262;2024-02-14T02:50:48;93802.16;;;5.65;99.32
9462;BME280;4769;42.660;23.262;2024-02-14T02:53:15;93799.13;;;5.68;99.24
9462;BME280;4769;42.660;23.262;2024-02-14T02:55:40;93800.25;;;5.72;99.50
9462;BME280;4769;42.660;23.262;2024-02-14T02:58:06;93811.38;;;5.68;99.13
9462;BME280;4769;42.660;23.262;2024-02-14T03:00:32;93814.28;;;5.60;99.25
9462;BME280;4769;42.660;23.262;2024-02-14T03:02:58;93824.59;;;5.55;100.00
9462;BME280;4769;42.660;23.262;2024-02-14T03:05:23;93822.28;;;5.65;99.76
9462;BME280;4769;42.660;23.262;2024-02-14T03:07:49;93819.31;;;5.61;99.36
9462;BME280;4769;42.660;23.262;2024-02-14T03:10:16;93825.09;;;5.63;99.53
9462;BME280;4769;42.660;23.262;2024-02-14T03:12:48;93817.66;;;5.67;98.77
9462;BME280;4769;42.660;23.262;2024-02-14T03:15:14;93840.22;;;5.61;98.33
9462;BME280;4769;42.660;23.262;2024-02-14T03:17:40;93819.72;;;5.58;97.92
9462;BME280;4769;42.660;23.262;2024-02-14T03:20:06;93831.97;;;5.64;98.36
9462;BME280;4769;42.660;23.262;2024-02-14T03:22:42;93832.03;;;5.76;97.81
9462;BME280;4769;42.660;23.262;2024-02-14T03:25:08;93831.50;;;5.67;97.72
9462;BME280;4769;42.660;23.262;2024-02-14T03:27:34;93843.13;;;5.71;97.15
9462;BME280;4769;42.660;23.262;2024-02-14T03:30:00;93848.44;;;5.65;97.14
9462;BME280;4769;42.660;23.262;2024-02-14T03:32:28;93848.56;;;5.70;97.83
9462;BME280;4769;42.660;23.262;2024-02-14T03:34:54;93855.50;;;5.64;96.86
9462;BME280;4769;42.660;23.262;2024-02-14T03:37:19;93846.97;;;5.69;96.92
9462;BME280;4769;42.660;23.262;2024-02-14T03:39:44;93846.56;;;5.72;96.45
9462;BME280;4769;42.660;23.262;2024-02-14T03:42:10;93858.81;;;5.71;96.21
9462;BME280;4769;42.660;23.262;2024-02-14T03:44:36;93856.66;;;5.68;96.57
9462;BME280;4769;42.660;23.262;2024-02-14T03:47:03;93854.88;;;5.87;95.66
9462;BME280;4769;42.660;23.262;2024-02-14T03:49:29;93861.28;;;5.91;95.37
9462;BME280;4769;42.660;23.262;2024-02-14T03:51:56;93860.72;;;5.64;95.39
9462;BME280;4769;42.660;23.262;2024-02-14T03:54:22;93864.69;;;5.49;96.35
9462;BME280;4769;42.660;23.262;2024-02-14T03:56:48;93863.03;;;5.54;96.15
9462;BME280;4769;42.660;23.262;2024-02-14T03:59:17;93860.34;;;5.61;96.39
9462;BME280;4769;42.660;23.262;2024-02-14T04:01:49;93859.19;;;5.75;95.55
9462;BME280;4769;42.660;23.262;2024-02-14T04:04:16;93866.59;;;5.78;95.16
9462;BME280;4769;42.660;23.262;2024-02-14T04:06:41;93867.63;;;5.77;95.10
9462;BME280;4769;42.660;23.262;2024-02-14T04:09:07;93871.47;;;5.74;94.71
9462;BME280;4769;42.660;23.262;2024-02-14T04:11:33;93871.00;;;5.84;94.10
9462;BME280;4769;42.660;23.262;2024-02-14T04:13:58;93872.06;;;5.76;94.40
9462;BME280;4769;42.660;23.262;2024-02-14T04:16:24;93867.59;;;5.59;95.29
9462;BME280;4769;42.660;23.262;2024-02-14T04:18:49;93879.09;;;5.58;95.69
9462;BME280;4769;42.660;23.262;2024-02-14T04:21:15;93883.44;;;5.64;96.21
9462;BME280;4769;42.660;23.262;2024-02-14T04:23:41;93886.44;;;5.67;96.21
9462;BME280;4769;42.660;23.262;2024-02-14T04:26:06;93886.47;;;5.61;94.89
9462;BME280;4769;42.660;23.262;2024-02-14T04:28:33;93880.75;;;5.52;96.29
9462;BME280;4769;42.660;23.262;2024-02-14T04:30:58;93889.50;;;5.64;95.87
9462;BME280;4769;42.660;23.262;2024-02-14T04:33:24;93897.97;;;5.60;95.88
9462;BME280;4769;42.660;23.262;2024-02-14T04:35:49;93895.00;;;5.56;96.50
9462;BME280;4769;42.660;23.262;2024-02-14T04:38:15;93901.19;;;5.62;96.18
9462;BME280;4769;42.660;23.262;2024-02-14T04:40:41;93896.78;;;5.56;96.38
9462;BME280;4769;42.660;23.262;2024-02-14T04:43:06;93888.47;;;5.65;95.29
9462;BME280;4769;42.660;23.262;2024-02-14T04:45:32;93915.97;;;5.50;95.88
9462;BME280;4769;42.660;23.262;2024-02-14T04:47:58;93905.13;;;5.46;96.12
9462;BME280;4769;42.660;23.262;2024-02-14T04:50:24;93909.13;;;5.49;96.85
9462;BME280;4769;42.660;23.262;2024-02-14T04:52:49;93905.66;;;5.55;96.47
9462;BME280;4769;42.660;23.262;2024-02-14T04:55:15;93911.78;;;5.67;96.33
9462;BME280;4769;42.660;23.262;2024-02-14T04:57:40;93903.22;;;5.78;95.68
9462;BME280;4769;42.660;23.262;2024-02-14T05:00:06;93911.50;;;5.75;95.69
9462;BME280;4769;42.660;23.262;2024-02-14T05:02:34;93932.97;;;5.59;96.37
9462;BME280;4769;42.660;23.262;2024-02-14T05:05:00;93918.56;;;5.50;95.84
9462;BME280;4769;42.660;23.262;2024-02-14T05:07:26;93935.03;;;5.57;95.65
9462;BME280;4769;42.660;23.262;2024-02-14T05:09:52;93921.25;;;5.43;96.22
9462;BME280;4769;42.660;23.262;2024-02-14T05:12:17;93936.66;;;5.51;96.13
9462;BME280;4769;42.660;23.262;2024-02-14T05:14:43;93929.50;;;5.65;95.52
9462;BME280;4769;42.660;23.262;2024-02-14T05:17:08;93931.44;;;5.51;95.74
9462;BME280;4769;42.660;23.262;2024-02-14T05:19:34;93934.63;;;5.53;96.23
9462;BME280;4769;42.660;23.262;2024-02-14T05:21:59;93937.75;;;5.44;96.50
9462;BME280;4769;42.660;23.262;2024-02-14T05:24:25;93933.84;;;5.53;96.93
9462;BME280;4769;42.660;23.262;2024-02-14T05:26:54;93947.53;;;5.48;96.84
9462;BME280;4769;42.660;23.262;2024-02-14T05:29:20;93952.31;;;5.58;96.00
9462;BME280;4769;42.660;23.262;2024-02-14T05:31:46;93952.16;;;5.53;95.85
9462;BME280;4769;42.660;23.262;2024-02-14T05:34:13;93952.88;;;5.35;95.92
9462;BME280;4769;42.660;23.262;2024-02-14T05:36:38;93960.22;;;5.51;96.22
9462;BME280;4769;42.660;23.262;2024-02-14T05:39:04;93959.56;;;5.56;96.23
9462;BME280;4769;42.660;23.262;2024-02-14T05:41:33;93967.69;;;5.48;95.33
9462;BME280;4769;42.660;23.262;2024-02-14T05:44:00;93967.88;;;5.46;95.20
9462;BME280;4769;42.660;23.262;2024-02-14T05:46:25;93975.41;;;5.61;94.78
9462;BME280;4769;42.660;23.262;2024-02-14T05:48:51;93988.44;;;5.43;94.30
9462;BME280;4769;42.660;23.262;2024-02-14T05:51:18;93979.97;;;5.41;95.31
9462;BME280;4769;42.660;23.262;2024-02-14T05:53:44;93986.66;;;5.37;94.12
9462;BME280;4769;42.660;23.262;2024-02-14T05:56:09;93988.00;;;5.46;94.00
9462;BME280;4769;42.660;23.262;2024-02-14T05:58:34;93998.25;;;5.47;93.36
9462;BME280;4769;42.660;23.262;2024-02-14T06:01:01;93990.69;;;5.64;93.70
9462;BME280;4769;42.660;23.262;2024-02-14T06:03:26;93992.00;;;5.48;93.62
9462;BME280;4769;42.660;23.262;2024-02-14T06:05:52;93999.38;;;5.58;93.21
9462;BME280;4769;42.660;23.262;2024-02-14T06:08:17;94009.06;;;5.51;93.02
9462;BME280;4769;42.660;23.262;2024-02-14T06:10:43;94009.22;;;5.56;93.12
9462;BME280;4769;42.660;23.262;2024-02-14T06:13:08;94014.50;;;5.49;92.91
9462;BME280;4769;42.660;23.262;2024-02-14T06:15:34;94012.53;;;5.45;92.96
9462;BME280;4769;42.660;23.262;2024-02-14T06:18:00;94019.31;;;5.52;92.62
9462;BME280;4769;42.660;23.262;2024-02-14T06:20:26;94024.25;;;5.36;92.62
9462;BME280;4769;42.660;23.262;2024-02-14T06:22:51;94027.44;;;5.38;91.99
9462;BME280;4769;42.660;23.262;2024-02-14T06:25:16;94025.84;;;5.37;92.01
9462;BME280;4769;42.660;23.262;2024-02-14T06:27:42;94032.19;;;5.54;91.48
9462;BME280;4769;42.660;23.262;2024-02-14T06:30:08;94035.91;;;5.40;91.24
9462;BME280;4769;42.660;23.262;2024-02-14T06:32:33;94043.38;;;5.36;91.74
9462;BME280;4769;42.660;23.262;2024-02-14T06:34:59;94049.03;;;5.27;91.46
9462;BME280;4769;42.660;23.262;2024-02-14T06:37:24;94032.75;;;5.31;91.74
9462;BME280;4769;42.660;23.262;2024-02-14T06:39:50;94041.72;;;5.42;91.47
9462;BME280;4769;42.660;23.262;2024-02-14T06:42:16;94035.09;;;5.39;92.34
9462;BME280;4769;42.660;23.262;2024-02-14T06:44:41;94038.03;;;5.49;91.51
9462;BME280;4769;42.660;23.262;2024-02-14T06:47:08;94042.16;;;5.63;90.71
9462;BME280;4769;42.660;23.262;2024-02-14T06:49:34;94043.41;;;5.61;90.48
9462;BME280;4769;42.660;23.262;2024-02-14T06:51:59;94050.59;;;5.34;90.47
9462;BME280;4769;42.660;23.262;2024-02-14T06:54:24;94055.59;;;5.42;90.68
9462;BME280;4769;42.660;23.262;2024-02-14T06:56:50;94046.69;;;5.50;90.64
9462;BME280;4769;42.660;23.262;2024-02-14T06:59:15;94046.88;;;5.55;90.51
9462;BME280;4769;42.660;23.262;2024-02-14T07:01:41;94061.13;;;5.59;89.11
9462;BME280;4769;42.660;23.262;2024-02-14T07:04:06;94053.94;;;5.54;89.64
9462;BME280;4769;42.660;23.262;2024-02-14T07:06:32;94059.94;;;5.55;89.55
9462;BME280;4769;42.660;23.262;2024-02-14T07:08:57;94060.91;;;5.60;89.77
9462;BME280;4769;42.660;23.262;2024-02-14T07:11:23;94066.75;;;5.56;88.10
9462;BME280;4769;42.660;23.262;2024-02-14T07:13:49;94071.34;;;5.67;88.36
9462;BME280;4769;42.660;23.262;2024-02-14T07:16:14;94077.34;;;5.67;87.97
9462;BME280;4769;42.660;23.262;2024-02-14T07:18:40;94077.69;;;5.46;87.89
9462;BME280;4769;42.660;23.262;2024-02-14T07:21:06;94085.97;;;5.81;87.87
9462;BME280;4769;42.660;23.262;2024-02-14T07:23:32;94086.59;;;5.70;87.40
9462;BME280;4769;42.660;23.262;2024-02-14T07:25:59;94090.03;;;5.70;87.55
9462;BME280;4769;42.660;23.262;2024-02-14T07:28:26;94098.03;;;5.82;86.56
9462;BME280;4769;42.660;23.262;2024-02-14T07:30:51;94091.94;;;5.57;87.10
9462;BME280;4769;42.660;23.262;2024-02-14T07:33:17;94099.53;;;5.58;86.67
9462;BME280;4769;42.660;23.262;2024-02-14T07:35:42;94089.53;;;5.55;87.07
9462;BME280;4769;42.660;23.262;2024-02-14T07:38:08;94098.97;;;5.56;87.27
9462;BME280;4769;42.660;23.262;2024-02-14T07:40:33;94092.19;;;5.42;87.81
9462;BME280;4769;42.660;23.262;2024-02-14T07:42:59;94094.44;;;5.39;88.33
9462;BME280;4769;42.660;23.262;2024-02-14T07:45:25;94099.22;;;5.42;87.69
9462;BME280;4769;42.660;23.262;2024-02-14T07:47:51;94097.41;;;5.49;87.33
9462;BME280;4769;42.660;23.262;2024-02-14T07:50:17;94098.50;;;5.66;86.51
9462;BME280;4769;42.660;23.262;2024-02-14T07:52:47;94107.38;;;5.58;87.39
9462;BME280;4769;42.660;23.262;2024-02-14T07:55:13;94114.44;;;5.58;88.39
9462;BME280;4769;42.660;23.262;2024-02-14T07:57:39;94114.81;;;5.61;88.89
9462;BME280;4769;42.660;23.262;2024-02-14T08:00:05;94103.41;;;5.49;87.90
9462;BME280;4769;42.660;23.262;2024-02-14T08:02:33;94112.91;;;5.44;89.42
9462;BME280;4769;42.660;23.262;2024-02-14T08:04:59;94113.56;;;5.33;90.71
9462;BME280;4769;42.660;23.262;2024-02-14T08:07:24;94119.84;;;5.19;90.58
9462;BME280;4769;42.660;23.262;2024-02-14T08:09:50;94114.50;;;5.01;92.35
9462;BME280;4769;42.660;23.262;2024-02-14T08:12:15;94125.50;;;5.16;91.70
9462;BME280;4769;42.660;23.262;2024-02-14T08:14:41;94120.47;;;5.14;91.98
9462;BME280;4769;42.660;23.262;2024-02-14T08:17:06;94121.88;;;5.17;91.92
9462;BME280;4769;42.660;23.262;2024-02-14T08:19:31;94132.72;;;5.20;91.42
9462;BME280;4769;42.660;23.262;2024-02-14T08:21:57;94118.88;;;5.13;91.71
9462;BME280;4769;42.660;23.262;2024-02-14T08:24:27;94129.34;;;5.07;91.02
9462;BME280;4769;42.660;23.262;2024-02-14T08:26:56;94129.25;;;5.33;91.74
9462;BME280;4769;42.660;23.262;2024-02-14T08:29:21;94135.53;;;5.19;91.50
9462;BME280;4769;42.660;23.262;2024-02-14T08:31:47;94137.19;;;5.51;90.21
9462;BME280;4769;42.660;23.262;2024-02-14T08:34:13;94136.56;;;5.62;90.28
9462;BME280;4769;42.660;23.262;2024-02-14T08:36:39;94137.00;;;5.52;88.65
9462;BME280;4769;42.660;23.262;2024-02-14T08:39:07;94134.75;;;5.12;89.86
9462;BME280;4769;42.660;23.262;2024-02-14T08:41:32;94149.25;;;5.08;90.56
9462;BME280;4769;42.660;23.262;2024-02-14T08:43:58;94141.22;;;5.09;90.63
9462;BME280;4769;42.660;23.262;2024-02-14T08:46:23;94160.72;;;5.07;90.23
9462;BME280;4769;42.660;23.262;2024-02-14T08:48:50;94167.59;;;4.82;91.22
9462;BME280;4769;42.660;23.262;2024-02-14T08:51:17;94154.69;;;5.00;90.96
9462;BME280;4769;42.660;23.262;2024-02-14T08:53:45;94154.84;;;5.18;90.68
9462;BME280;4769;42.660;23.262;2024-02-14T08:56:11;94156.06;;;5.15;90.35
9462;BME280;4769;42.660;23.262;2024-02-14T08:58:36;94175.00;;;5.04;90.30
9462;BME280;4769;42.660;23.262;2024-02-14T09:01:02;94180.78;;;5.13;89.68
9462;BME280;4769;42.660;23.262;2024-02-14T09:03:27;94184.25;;;5.00;89.76
9462;BME280;4769;42.660;23.262;2024-02-14T09:05:52;94181.84;;;4.79;90.68
9462;BME280;4769;42.660;23.262;2024-02-14T09:08:19;94177.44;;;4.93;91.17
9462;BME280;4769;42.660;23.262;2024-02-14T09:10:46;94172.44;;;4.78;92.24
9462;BME280;4769;42.660;23.262;2024-02-14T09:13:11;94187.41;;;5.15;92.61
9462;BME280;4769;42.660;23.262;2024-02-14T09:15:37;94182.84;;;5.04;93.45
9462;BME280;4769;42.660;23.262;2024-02-14T09:18:02;94183.44;;;4.93;94.13
9462;BME280;4769;42.660;23.262;2024-02-14T09:20:28;94185.69;;;4.77;96.08
9462;BME280;4769;42.660;23.262;2024-02-14T09:22:55;94179.88;;;4.68;97.64
9462;BME280;4769;42.660;23.262;2024-02-14T09:25:21;94182.66;;;4.80;98.89
9462;BME280;4769;42.660;23.262;2024-02-14T09:27:49;94186.47;;;4.90;99.49
9462;BME280;4769;42.660;23.262;2024-02-14T09:30:14;94190.09;;;4.89;100.00
9462;BME280;4769;42.660;23.262;2024-02-14T09:32:43;94192.72;;;4.89;100.00
9462;BME280;4769;42.660;23.262;2024-02-14T09:35:08;94189.06;;;5.03;100.00
9462;BME280;4769;42.660;23.262;2024-02-14T09:37:33;94188.47;;;4.95;99.82
9462;BME280;4769;42.660;23.262;2024-02-14T09:39:59;94191.72;;;4.84;100.00
9462;BME280;4769;42.660;23.262;2024-02-14T09:42:37;94197.31;;;4.94;100.00
9462;BME280;4769;42.660;23.262;2024-02-14T09:45:05;94196.31;;;4.88;100.00
9462;BME280;4769;42.660;23.262;2024-02-14T09:47:31;94183.88;;;4.71;100.00
9462;BME280;4769;42.660;23.262;2024-02-14T09:49:59;94181.25;;;4.90;100.00
9462;BME280;4769;42.660;23.262;2024-02-14T09:52:25;94180.81;;;5.00;100.00
9462;BME280;4769;42.660;23.262;2024-02-14T09:54:51;94186.22;;;5.05;99.92
9462;BME280;4769;42.660;23.262;2024-02-14T09:57:18;94177.41;;;4.99;100.00
9462;BME280;4769;42.660;23.262;2024-02-14T09:59:44;94175.75;;;5.18;98.02
9462;BME280;4769;42.660;23.262;2024-02-14T10:02:10;94173.56;;;5.08;94.52
9462;BME280;4769;42.660;23.262;2024-02-14T10:04:36;94176.59;;;5.05;90.78
9462;BME280;4769;42.660;23.262;2024-02-14T10:07:04;94185.66;;;4.90;91.42
9462;BME280;4769;42.660;23.262;2024-02-14T10:09:30;94184.22;;;5.13;92.99
9462;BME280;4769;42.660;23.262;2024-02-14T10:11:56;94179.38;;;5.10;91.03
9462;BME280;4769;42.660;23.262;2024-02-14T10:14:25;94177.97;;;5.21;89.80
9462;BME280;4769;42.660;23.262;2024-02-14T10:16:52;94170.56;;;5.05;88.71
9462;BME280;4769;42.660;23.262;2024-02-14T10:19:18;94177.56;;;5.17;89.78
9462;BME280;4769;42.660;23.262;2024-02-14T10:21:44;94172.06;;;5.32;89.49
9462;BME280;4769;42.660;23.262;2024-02-14T10:24:19;94179.69;;;5.40;89.56
9462;BME280;4769;42.660;23.262;2024-02-14T10:26:45;94185.38;;;5.24;89.11
9462;BME280;4769;42.660;23.262;2024-02-14T10:29:11;94173.28;;;5.36;87.71
9462;BME280;4769;42.660;23.262;2024-02-14T10:31:36;94179.25;;;5.49;88.04
9462;BME280;4769;42.660;23.262;2024-02-14T10:34:02;94165.06;;;5.32;88.28
9462;BME280;4769;42.660;23.262;2024-02-14T10:36:28;94176.84;;;5.48;87.81
9462;BME280;4769;42.660;23.262;2024-02-14T10:38:56;94173.56;;;5.65;86.25
9462;BME280;4769;42.660;23.262;2024-02-14T10:41:23;94178.28;;;5.44;86.36
9462;BME280;4769;42.660;23.262;2024-02-14T10:43:49;94170.13;;;5.21;87.34
9462;BME280;4769;42.660;23.262;2024-02-14T10:46:19;94168.69;;;5.31;87.37
9462;BME280;4769;42.660;23.262;2024-02-14T10:48:50;94175.94;;;5.23;88.26
9462;BME280;4769;42.660;23.262;2024-02-14T10:51:21;94164.25;;;5.32;87.68
9462;BME280;4769;42.660;23.262;2024-02-14T10:53:47;94170.06;;;5.34;87.66
9462;BME280;4769;42.660;23.262;2024-02-14T10:56:17;94166.00;;;5.44;86.49
9462;BME280;4769;42.660;23.262;2024-02-14T10:58:47;94173.06;;;5.37;86.54
9462;BME280;4769;42.660;23.262;2024-02-14T11:01:13;94176.59;;;5.56;87.44
9462;BME280;4769;42.660;23.262;2024-02-14T11:03:41;94174.06;;;5.43;87.18
9462;BME280;4769;42.660;23.262;2024-02-14T11:06:07;94180.09;;;5.37;86.76
9462;BME280;4769;42.660;23.262;2024-02-14T11:08:33;94177.78;;;5.60;87.88
9462;BME280;4769;42.660;23.262;2024-02-14T11:11:00;94169.53;;;5.63;85.97
9462;BME280;4769;42.660;23.262;2024-02-14T11:13:29;94185.84;;;5.58;84.69
9462;BME280;4769;42.660;23.262;2024-02-14T11:16:04;94168.56;;;5.51;85.41
9462;BME280;4769;42.660;23.262;2024-02-14T11:18:30;94178.22;;;5.57;86.15
9462;BME280;4769;42.660;23.262;2024-02-14T11:20:56;94170.28;;;5.70;85.83
9462;BME280;4769;42.660;23.262;2024-02-14T11:23:23;94163.66;;;5.67;86.17
9462;BME280;4769;42.660;23.262;2024-02-14T11:25:49;94192.25;;;5.69;86.68
9462;BME280;4769;42.660;23.262;2024-02-14T11:28:16;94177.09;;;5.40;88.42
9462;BME280;4769;42.660;23.262;2024-02-14T11:30:42;94174.09;;;5.36;88.92
9462;BME280;4769;42.660;23.262;2024-02-14T11:33:29;94178.09;;;5.39;89.76
9462;BME280;4769;42.660;23.262;2024-02-14T11:35:55;94176.94;;;5.28;90.06
9462;BME280;4769;42.660;23.262;2024-02-14T11:38:21;94180.22;;;5.11;91.58
9462;BME280;4769;42.660;23.262;2024-02-14T11:40:47;94178.78;;;5.15;91.52
9462;BME280;4769;42.660;23.262;2024-02-14T11:43:15;94172.97;;;5.00;92.65
9462;BME280;4769;42.660;23.262;2024-02-14T11:45:42;94180.41;;;5.09;94.31
9462;BME280;4769;42.660;23.262;2024-02-14T11:48:12;94173.56;;;5.15;93.66
9462;BME280;4769;42.660;23.262;2024-02-14T11:50:43;94163.28;;;5.20;92.36
9462;BME280;4769;42.660;23.262;2024-02-14T11:53:13;94175.06;;;5.35;91.44
9462;BME280;4769;42.660;23.262;2024-02-14T11:55:40;94168.50;;;5.26;91.03
9462;BME280;4769;42.660;23.262;2024-02-14T11:58:09;94172.09;;;5.25;91.16
9462;BME280;4769;42.660;23.262;2024-02-14T12:00:40;94177.69;;;5.35;90.45
9462;BME280;4769;42.660;23.262;2024-02-14T12:03:14;94175.41;;;5.52;91.19
9462;BME280;4769;42.660;23.262;2024-02-14T12:05:41;94177.47;;;5.43;91.57
9462;BME280;4769;42.660;23.262;2024-02-14T12:08:09;94180.09;;;5.37;91.07
9462;BME280;4769;42.660;23.262;2024-02-14T12:10:36;94169.91;;;5.29;90.80
9462;BME280;4769;42.660;23.262;2024-02-14T12:13:13;94167.47;;;5.27;89.04
9462;BME280;4769;42.660;23.262;2024-02-14T12:15:45;94165.44;;;5.36;88.48
9462;BME280;4769;42.660;23.262;2024-02-14T12:18:10;94172.47;;;5.35;87.57
9462;BME280;4769;42.660;23.262;2024-02-14T12:20:39;94165.00;;;5.45;88.09
9462;BME280;4769;42.660;23.262;2024-02-14T12:23:05;94158.59;;;5.41;87.42
9462;BME280;4769;42.660;23.262;2024-02-14T12:25:31;94172.56;;;5.60;87.20
9462;BME280;4769;42.660;23.262;2024-02-14T12:27:57;94157.75;;;5.47;87.11
9462;BME280;4769;42.660;23.262;2024-02-14T12:30:43;94157.25;;;5.63;86.23
9462;BME280;4769;42.660;23.262;2024-02-14T12:33:18;94158.66;;;5.66;85.55
9462;BME280;4769;42.660;23.262;2024-02-14T12:35:45;94151.38;;;5.81;85.61
9462;BME280;4769;42.660;23.262;2024-02-14T12:38:11;94158.84;;;5.71;84.77
9462;BME280;4769;42.660;23.262;2024-02-14T12:40:38;94159.56;;;5.91;85.34
9462;BME280;4769;42.660;23.262;2024-02-14T12:43:03;94141.28;;;5.84;84.15
9462;BME280;4769;42.660;23.262;2024-02-14T12:45:31;94154.78;;;5.75;83.98
9462;BME280;4769;42.660;23.262;2024-02-14T12:47:56;94151.00;;;5.71;84.11
9462;BME280;4769;42.660;23.262;2024-02-14T12:50:22;94151.38;;;5.81;84.23
9462;BME280;4769;42.660;23.262;2024-02-14T12:52:47;94154.78;;;5.75;82.46
9462;BME280;4769;42.660;23.262;2024-02-14T12:55:14;94153.72;;;5.89;83.51
9462;BME280;4769;42.660;23.262;2024-02-14T12:57:39;94151.22;;;6.00;81.91
9462;BME280;4769;42.660;23.262;2024-02-14T13:00:06;94158.75;;;6.21;81.63
9462;BME280;4769;42.660;23.262;2024-02-14T13:02:34;94160.72;;;6.01;81.32
9462;BME280;4769;42.660;23.262;2024-02-14T13:04:59;94161.31;;;5.97;81.04
9462;BME280;4769;42.660;23.262;2024-02-14T13:07:26;94171.50;;;6.11;81.40
9462;BME280;4769;42.660;23.262;2024-02-14T13:09:51;94166.28;;;6.11;79.80
9462;BME280;4769;42.660;23.262;2024-02-14T13:12:17;94166.72;;;6.02;79.42
9462;BME280;4769;42.660;23.262;2024-02-14T13:14:42;94168.28;;;6.09;79.65